sensor_id;sensor_type;location;lat;lon;timestamp;temperature;humidity
25991;DHT22;13779;-33.886;151.198;2023-06-10T00:01:24;13.60;99.90
25991;DHT22;13779;-33.886;151.198;2023-06-10T00:03:55;13.70;99.90
25991;DHT22;13779;-33.886;151.198;2023-06-10T00:06:29;13.70;99.90
25991;DHT22;13779;-33.886;151.198;2023-06-10T00:09:15;13.80;99.90
25991;DHT22;13779;-33.886;151.198;2023-06-10T00:11:45;14.00;99.90
25991;DHT22;13779;-33.886;151.198;2023-06-10T00:14:16;13.90;99.90
25991;DHT22;13779;-33.886;151.198;2023-06-10T00:16:47;14.00;99.90
25991;DHT22;13779;-33.886;151.198;2023-06-10T00:19:18;14.10;99.90
25991;DHT22;13779;-33.886;151.198;2023-06-10T00:21:48;14.20;99.90
25991;DHT22;13779;-33.886;151.198;2023-06-10T00:24:21;14.20;99.90
25991;DHT22;13779;-33.886;151.198;2023-06-10T00:26:52;14.30;99.90
25991;DHT22;13779;-33.886;151.198;2023-06-10T00:29:22;14.30;99.90
25991;DHT22;13779;-33.886;151.198;2023-06-10T00:31:53;14.30;99.90
25991;DHT22;13779;-33.886;151.198;2023-06-10T00:34:27;14.40;99.90
25991;DHT22;13779;-33.886;151.198;2023-06-10T00:36:58;14.50;99.90
25991;DHT22;13779;-33.886;151.198;2023-06-10T00:39:28;14.60;99.90
25991;DHT22;13779;-33.886;151.198;2023-06-10T00:41:59;14.70;99.90
25991;DHT22;13779;-33.886;151.198;2023-06-10T00:44:30;14.80;99.90
25991;DHT22;13779;-33.886;151.198;2023-06-10T00:47:01;14.80;99.90
25991;DHT22;13779;-33.886;151.198;2023-06-10T00:49:33;14.90;99.90
25991;DHT22;13779;-33.886;151.198;2023-06-10T00:52:05;15.00;99.90
25991;DHT22;13779;-33.886;151.198;2023-06-10T00:54:38;15.10;99.90
25991;DHT22;13779;-33.886;151.198;2023-06-10T00:57:08;15.20;99.90
25991;DHT22;13779;-33.886;151.198;2023-06-10T00:59:43;15.30;99.90
25991;DHT22;13779;-33.886;151.198;2023-06-10T01:02:17;15.30;99.90
25991;DHT22;13779;-33.886;151.198;2023-06-10T01:04:48;15.40;99.90
25991;DHT22;13779;-33.886;151.198;2023-06-10T01:07:26;15.50;99.90
25991;DHT22;13779;-33.886;151.198;2023-06-10T01:10:05;15.60;99.90
25991;DHT22;13779;-33.886;151.198;2023-06-10T01:12:52;15.60;99.90
25991;DHT22;13779;-33.886;151.198;2023-06-10T01:15:26;15.60;99.90
25991;DHT22;13779;-33.886;151.198;2023-06-10T01:18:01;15.70;99.90
25991;DHT22;13779;-33.886;151.198;2023-06-10T01:20:33;15.70;99.90
25991;DHT22;13779;-33.886;151.198;2023-06-10T01:23:03;15.70;99.90
25991;DHT22;13779;-33.886;151.198;2023-06-10T01:25:39;15.70;99.90
25991;DHT22;13779;-33.886;151.198;2023-06-10T01:33:47;15.80;99.90
25991;DHT22;13779;-33.886;151.198;2023-06-10T01:36:19;15.80;99.90
25991;DHT22;13779;-33.886;151.198;2023-06-10T01:38:50;15.80;99.90
25991;DHT22;13779;-33.886;151.198;2023-06-10T01:41:23;15.80;99.90
25991;DHT22;13779;-33.886;151.198;2023-06-10T01:43:55;15.80;99.90
25991;DHT22;13779;-33.886;151.198;2023-06-10T01:46:26;15.80;99.90
25991;DHT22;13779;-33.886;151.198;2023-06-10T01:48:57;15.80;99.90
25991;DHT22;13779;-33.886;151.198;2023-06-10T01:51:27;15.90;99.90
25991;DHT22;13779;-33.886;151.198;2023-06-10T01:53:59;15.90;99.90
25991;DHT22;13779;-33.886;151.198;2023-06-10T01:56:29;15.90;99.90
25991;DHT22;13779;-33.886;151.198;2023-06-10T01:58:59;16.00;99.90
25991;DHT22;13779;-33.886;151.198;2023-06-10T02:01:29;16.00;99.90
25991;DHT22;13779;-33.886;151.198;2023-06-10T02:04:00;16.00;99.90
25991;DHT22;13779;-33.886;151.198;2023-06-10T02:06:30;16.00;99.90
25991;DHT22;13779;-33.886;151.198;2023-06-10T02:09:03;16.10;99.90
25991;DHT22;13779;-33.886;151.198;2023-06-10T02:11:34;16.10;99.90
25991;DHT22;13779;-33.886;151.198;2023-06-10T02:14:04;16.20;99.90
25991;DHT22;13779;-33.886;151.198;2023-06-10T02:16:35;16.20;99.90
25991;DHT22;13779;-33.886;151.198;2023-06-10T02:19:05;16.20;99.90
25991;DHT22;13779;-33.886;151.198;2023-06-10T02:21:36;16.20;99.90
25991;DHT22;13779;-33.886;151.198;2023-06-10T02:24:07;16.30;99.90
25991;DHT22;13779;-33.886;151.198;2023-06-10T02:26:37;16.30;99.90
25991;DHT22;13779;-33.886;151.198;2023-06-10T02:29:07;16.40;99.90
25991;DHT22;13779;-33.886;151.198;2023-06-10T02:31:38;16.50;99.90
25991;DHT22;13779;-33.886;151.198;2023-06-10T02:34:11;16.60;99.90
25991;DHT22;13779;-33.886;151.198;2023-06-10T02:36:42;16.70;99.90
25991;DHT22;13779;-33.886;151.198;2023-06-10T02:39:12;16.80;99.90
25991;DHT22;13779;-33.886;151.198;2023-06-10T02:41:45;16.80;99.90
25991;DHT22;13779;-33.886;151.198;2023-06-10T02:44:16;16.80;99.90
25991;DHT22;13779;-33.886;151.198;2023-06-10T02:46:47;16.80;99.90
25991;DHT22;13779;-33.886;151.198;2023-06-10T02:49:18;16.80;99.90
25991;DHT22;13779;-33.886;151.198;2023-06-10T02:51:53;16.80;99.90
25991;DHT22;13779;-33.886;151.198;2023-06-10T02:54:27;16.90;99.90
25991;DHT22;13779;-33.886;151.198;2023-06-10T02:56:58;17.10;99.90
25991;DHT22;13779;-33.886;151.198;2023-06-10T02:59:28;17.10;99.90
25991;DHT22;13779;-33.886;151.198;2023-06-10T03:01:59;17.30;99.90
25991;DHT22;13779;-33.886;151.198;2023-06-10T03:04:31;17.40;99.90
25991;DHT22;13779;-33.886;151.198;2023-06-10T03:07:02;17.50;99.90
25991;DHT22;13779;-33.886;151.198;2023-06-10T03:09:33;17.70;99.90
25991;DHT22;13779;-33.886;151.198;2023-06-10T03:12:09;17.90;99.90
25991;DHT22;13779;-33.886;151.198;2023-06-10T03:14:43;18.00;99.90
25991;DHT22;13779;-33.886;151.198;2023-06-10T03:17:13;18.00;99.90
25991;DHT22;13779;-33.886;151.198;2023-06-10T03:19:44;18.00;99.90
25991;DHT22;13779;-33.886;151.198;2023-06-10T03:22:16;18.10;99.90
25991;DHT22;13779;-33.886;151.198;2023-06-10T03:24:46;18.20;99.90
25991;DHT22;13779;-33.886;151.198;2023-06-10T03:27:20;18.30;99.90
25991;DHT22;13779;-33.886;151.198;2023-06-10T03:29:54;18.50;99.90
25991;DHT22;13779;-33.886;151.198;2023-06-10T03:32:25;18.50;99.90
25991;DHT22;13779;-33.886;151.198;2023-06-10T03:34:56;18.60;99.90
25991;DHT22;13779;-33.886;151.198;2023-06-10T03:37:27;18.90;99.90
25991;DHT22;13779;-33.886;151.198;2023-06-10T03:39:58;19.10;99.90
25991;DHT22;13779;-33.886;151.198;2023-06-10T03:42:32;19.40;99.90
25991;DHT22;13779;-33.886;151.198;2023-06-10T03:45:03;19.60;99.90
25991;DHT22;13779;-33.886;151.198;2023-06-10T03:47:36;19.40;99.90
25991;DHT22;13779;-33.886;151.198;2023-06-10T03:50:08;19.40;99.90
25991;DHT22;13779;-33.886;151.198;2023-06-10T03:52:41;19.50;99.90
25991;DHT22;13779;-33.886;151.198;2023-06-10T03:55:12;19.40;99.90
25991;DHT22;13779;-33.886;151.198;2023-06-10T03:57:44;19.30;99.90
25991;DHT22;13779;-33.886;151.198;2023-06-10T04:00:16;19.30;99.90
25991;DHT22;13779;-33.886;151.198;2023-06-10T04:02:47;19.60;99.90
25991;DHT22;13779;-33.886;151.198;2023-06-10T04:05:22;19.60;99.90
25991;DHT22;13779;-33.886;151.198;2023-06-10T04:07:52;19.70;99.90
25991;DHT22;13779;-33.886;151.198;2023-06-10T04:10:23;19.80;99.90
25991;DHT22;13779;-33.886;151.198;2023-06-10T04:12:54;19.80;99.90
25991;DHT22;13779;-33.886;151.198;2023-06-10T04:15:24;19.80;99.90
25991;DHT22;13779;-33.886;151.198;2023-06-10T04:17:55;20.00;99.90
25991;DHT22;13779;-33.886;151.198;2023-06-10T04:20:26;19.80;99.90
25991;DHT22;13779;-33.886;151.198;2023-06-10T04:22:56;19.80;99.90
25991;DHT22;13779;-33.886;151.198;2023-06-10T04:25:27;20.00;99.90
25991;DHT22;13779;-33.886;151.198;2023-06-10T04:27:58;20.00;99.90
25991;DHT22;13779;-33.886;151.198;2023-06-10T04:30:29;19.90;99.90
25991;DHT22;13779;-33.886;151.198;2023-06-10T04:33:01;19.70;99.90
25991;DHT22;13779;-33.886;151.198;2023-06-10T04:35:31;19.80;99.90
25991;DHT22;13779;-33.886;151.198;2023-06-10T04:38:02;19.90;99.90
25991;DHT22;13779;-33.886;151.198;2023-06-10T04:40:33;20.00;99.90
25991;DHT22;13779;-33.886;151.198;2023-06-10T04:43:04;19.90;99.90
25991;DHT22;13779;-33.886;151.198;2023-06-10T04:45:35;19.80;99.90
25991;DHT22;13779;-33.886;151.198;2023-06-10T04:48:06;19.60;99.90
25991;DHT22;13779;-33.886;151.198;2023-06-10T04:50:37;19.30;99.90
25991;DHT22;13779;-33.886;151.198;2023-06-10T04:53:08;19.20;99.90
25991;DHT22;13779;-33.886;151.198;2023-06-10T04:55:39;19.00;99.90
25991;DHT22;13779;-33.886;151.198;2023-06-10T04:58:10;19.00;99.90
25991;DHT22;13779;-33.886;151.198;2023-06-10T05:00:41;18.80;99.90
25991;DHT22;13779;-33.886;151.198;2023-06-10T05:03:12;18.60;99.90
25991;DHT22;13779;-33.886;151.198;2023-06-10T05:05:42;18.30;99.90
25991;DHT22;13779;-33.886;151.198;2023-06-10T05:08:13;18.20;99.90
25991;DHT22;13779;-33.886;151.198;2023-06-10T05:10:44;18.00;99.90
25991;DHT22;13779;-33.886;151.198;2023-06-10T05:13:16;18.00;99.90
25991;DHT22;13779;-33.886;151.198;2023-06-10T05:15:47;17.80;99.90
25991;DHT22;13779;-33.886;151.198;2023-06-10T05:18:18;17.70;99.90
25991;DHT22;13779;-33.886;151.198;2023-06-10T05:20:48;17.70;99.90
25991;DHT22;13779;-33.886;151.198;2023-06-10T05:23:19;17.50;99.90
25991;DHT22;13779;-33.886;151.198;2023-06-10T05:25:50;17.50;99.90
25991;DHT22;13779;-33.886;151.198;2023-06-10T05:28:21;17.40;99.90
25991;DHT22;13779;-33.886;151.198;2023-06-10T05:30:51;17.40;99.90
25991;DHT22;13779;-33.886;151.198;2023-06-10T05:33:22;17.30;99.90
25991;DHT22;13779;-33.886;151.198;2023-06-10T05:35:53;17.30;99.90
25991;DHT22;13779;-33.886;151.198;2023-06-10T05:38:24;17.20;99.90
25991;DHT22;13779;-33.886;151.198;2023-06-10T05:40:54;17.10;99.90
25991;DHT22;13779;-33.886;151.198;2023-06-10T05:43:27;17.10;99.90
25991;DHT22;13779;-33.886;151.198;2023-06-10T05:45:57;17.10;99.90
25991;DHT22;13779;-33.886;151.198;2023-06-10T05:48:28;17.10;99.90
25991;DHT22;13779;-33.886;151.198;2023-06-10T05:50:58;17.00;99.90
25991;DHT22;13779;-33.886;151.198;2023-06-10T05:53:29;16.90;99.90
25991;DHT22;13779;-33.886;151.198;2023-06-10T05:55:59;16.90;99.90
25991;DHT22;13779;-33.886;151.198;2023-06-10T05:58:29;16.90;99.90
25991;DHT22;13779;-33.886;151.198;2023-06-10T06:00:59;16.80;99.90
25991;DHT22;13779;-33.886;151.198;2023-06-10T06:03:30;16.80;99.90
25991;DHT22;13779;-33.886;151.198;2023-06-10T06:06:00;16.70;99.90
25991;DHT22;13779;-33.886;151.198;2023-06-10T06:08:31;16.70;99.90
25991;DHT22;13779;-33.886;151.198;2023-06-10T06:11:01;16.70;99.90
25991;DHT22;13779;-33.886;151.198;2023-06-10T06:13:31;16.70;99.90
25991;DHT22;13779;-33.886;151.198;2023-06-10T06:16:01;16.70;99.90
25991;DHT22;13779;-33.886;151.198;2023-06-10T06:18:31;16.70;99.90
25991;DHT22;13779;-33.886;151.198;2023-06-10T06:21:02;16.60;99.90
25991;DHT22;13779;-33.886;151.198;2023-06-10T06:23:32;16.60;99.90
25991;DHT22;13779;-33.886;151.198;2023-06-10T06:26:02;16.50;99.90
25991;DHT22;13779;-33.886;151.198;2023-06-10T06:28:35;16.50;99.90
25991;DHT22;13779;-33.886;151.198;2023-06-10T06:31:06;16.40;99.90
25991;DHT22;13779;-33.886;151.198;2023-06-10T06:33:37;16.30;99.90
25991;DHT22;13779;-33.886;151.198;2023-06-10T06:36:07;16.30;99.90
25991;DHT22;13779;-33.886;151.198;2023-06-10T06:38:37;16.20;99.90
25991;DHT22;13779;-33.886;151.198;2023-06-10T06:41:08;16.20;99.90
25991;DHT22;13779;-33.886;151.198;2023-06-10T06:43:38;16.10;99.90
25991;DHT22;13779;-33.886;151.198;2023-06-10T06:46:08;16.10;99.90
25991;DHT22;13779;-33.886;151.198;2023-06-10T06:48:39;16.00;99.90
25991;DHT22;13779;-33.886;151.198;2023-06-10T06:51:10;16.00;99.90
25991;DHT22;13779;-33.886;151.198;2023-06-10T06:53:40;15.90;99.90
25991;DHT22;13779;-33.886;151.198;2023-06-10T06:56:15;15.90;99.90
25991;DHT22;13779;-33.886;151.198;2023-06-10T06:58:46;15.90;99.90
25991;DHT22;13779;-33.886;151.198;2023-06-10T07:01:19;15.80;99.90
25991;DHT22;13779;-33.886;151.198;2023-06-10T07:03:50;15.80;99.90
25991;DHT22;13779;-33.886;151.198;2023-06-10T07:06:20;15.70;99.90
25991;DHT22;13779;-33.886;151.198;2023-06-10T07:08:50;15.70;99.90
25991;DHT22;13779;-33.886;151.198;2023-06-10T07:11:21;15.70;99.90
25991;DHT22;13779;-33.886;151.198;2023-06-10T07:13:51;15.70;99.90
25991;DHT22;13779;-33.886;151.198;2023-06-10T07:16:22;15.70;99.90
25991;DHT22;13779;-33.886;151.198;2023-06-10T07:18:53;15.70;99.90
25991;DHT22;13779;-33.886;151.198;2023-06-10T07:21:23;15.70;99.90
25991;DHT22;13779;-33.886;151.198;2023-06-10T07:23:53;15.70;99.90
25991;DHT22;13779;-33.886;151.198;2023-06-10T07:26:24;15.70;99.90
25991;DHT22;13779;-33.886;151.198;2023-06-10T07:28:55;15.70;99.90
25991;DHT22;13779;-33.886;151.198;2023-06-10T07:31:25;15.60;99.90
25991;DHT22;13779;-33.886;151.198;2023-06-10T07:33:55;15.60;99.90
25991;DHT22;13779;-33.886;151.198;2023-06-10T07:36:25;15.60;99.90
25991;DHT22;13779;-33.886;151.198;2023-06-10T07:38:59;15.50;99.90
25991;DHT22;13779;-33.886;151.198;2023-06-10T07:41:29;15.50;99.90
25991;DHT22;13779;-33.886;151.198;2023-06-10T07:44:00;15.50;99.90
25991;DHT22;13779;-33.886;151.198;2023-06-10T07:46:30;15.40;99.90
25991;DHT22;13779;-33.886;151.198;2023-06-10T07:49:00;15.40;99.90
25991;DHT22;13779;-33.886;151.198;2023-06-10T07:51:31;15.40;99.90
25991;DHT22;13779;-33.886;151.198;2023-06-10T07:54:02;15.40;99.90
25991;DHT22;13779;-33.886;151.198;2023-06-10T07:56:32;15.40;99.90
25991;DHT22;13779;-33.886;151.198;2023-06-10T07:59:03;15.30;99.90
25991;DHT22;13779;-33.886;151.198;2023-06-10T08:01:33;15.30;99.90
25991;DHT22;13779;-33.886;151.198;2023-06-10T08:04:05;15.20;99.90
25991;DHT22;13779;-33.886;151.198;2023-06-10T08:06:36;15.20;99.90
25991;DHT22;13779;-33.886;151.198;2023-06-10T08:09:06;15.20;99.90
25991;DHT22;13779;-33.886;151.198;2023-06-10T08:11:37;15.20;99.90
25991;DHT22;13779;-33.886;151.198;2023-06-10T08:14:07;15.10;99.90
25991;DHT22;13779;-33.886;151.198;2023-06-10T08:16:37;15.10;99.90
25991;DHT22;13779;-33.886;151.198;2023-06-10T08:19:07;15.10;99.90
25991;DHT22;13779;-33.886;151.198;2023-06-10T08:21:38;15.10;99.90
25991;DHT22;13779;-33.886;151.198;2023-06-10T08:24:10;15.10;99.90
25991;DHT22;13779;-33.886;151.198;2023-06-10T08:26:41;15.00;99.90
25991;DHT22;13779;-33.886;151.198;2023-06-10T08:29:12;15.00;99.90
25991;DHT22;13779;-33.886;151.198;2023-06-10T08:31:43;15.00;99.90
25991;DHT22;13779;-33.886;151.198;2023-06-10T08:34:13;14.90;99.90
25991;DHT22;13779;-33.886;151.198;2023-06-10T08:36:44;14.90;99.90
25991;DHT22;13779;-33.886;151.198;2023-06-10T08:39:15;14.90;99.90
25991;DHT22;13779;-33.886;151.198;2023-06-10T08:41:56;14.80;99.90
25991;DHT22;13779;-33.886;151.198;2023-06-10T08:44:30;14.80;99.90
25991;DHT22;13779;-33.886;151.198;2023-06-10T08:47:08;14.80;99.90
25991;DHT22;13779;-33.886;151.198;2023-06-10T08:49:44;14.70;99.90
25991;DHT22;13779;-33.886;151.198;2023-06-10T08:52:17;14.70;99.90
25991;DHT22;13779;-33.886;151.198;2023-06-10T08:55:14;14.70;99.90
25991;DHT22;13779;-33.886;151.198;2023-06-10T08:57:43;14.60;99.90
25991;DHT22;13779;-33.886;151.198;2023-06-10T09:00:16;14.60;99.90
25991;DHT22;13779;-33.886;151.198;2023-06-10T09:02:47;14.50;99.90
25991;DHT22;13779;-33.886;151.198;2023-06-10T09:05:20;14.50;99.90
25991;DHT22;13779;-33.886;151.198;2023-06-10T09:07:52;14.50;99.90
25991;DHT22;13779;-33.886;151.198;2023-06-10T09:10:23;14.40;99.90
25991;DHT22;13779;-33.886;151.198;2023-06-10T09:12:54;14.40;99.90
25991;DHT22;13779;-33.886;151.198;2023-06-10T09:15:25;14.40;99.90
25991;DHT22;13779;-33.886;151.198;2023-06-10T09:17:56;14.40;99.90
25991;DHT22;13779;-33.886;151.198;2023-06-10T09:20:27;14.30;99.90
25991;DHT22;13779;-33.886;151.198;2023-06-10T09:22:59;14.30;99.90
25991;DHT22;13779;-33.886;151.198;2023-06-10T09:25:39;14.20;99.90
25991;DHT22;13779;-33.886;151.198;2023-06-10T09:28:16;14.20;99.90
25991;DHT22;13779;-33.886;151.198;2023-06-10T09:30:47;14.20;99.90
25991;DHT22;13779;-33.886;151.198;2023-06-10T09:33:18;14.20;99.90
25991;DHT22;13779;-33.886;151.198;2023-06-10T09:35:49;14.10;99.90
25991;DHT22;13779;-33.886;151.198;2023-06-10T09:38:21;14.10;99.90
25991;DHT22;13779;-33.886;151.198;2023-06-10T09:40:53;14.10;99.90
25991;DHT22;13779;-33.886;151.198;2023-06-10T09:43:42;14.00;99.90
25991;DHT22;13779;-33.886;151.198;2023-06-10T09:46:19;14.00;99.90
25991;DHT22;13779;-33.886;151.198;2023-06-10T09:48:50;13.90;99.90
25991;DHT22;13779;-33.886;151.198;2023-06-10T09:51:25;14.00;99.90
25991;DHT22;13779;-33.886;151.198;2023-06-10T09:53:55;13.90;99.90
25991;DHT22;13779;-33.886;151.198;2023-06-10T09:56:36;13.90;99.90
25991;DHT22;13779;-33.886;151.198;2023-06-10T09:59:07;13.90;99.90
25991;DHT22;13779;-33.886;151.198;2023-06-10T10:01:38;13.90;99.90
25991;DHT22;13779;-33.886;151.198;2023-06-10T10:04:08;13.90;99.90
25991;DHT22;13779;-33.886;151.198;2023-06-10T10:06:40;13.90;99.90
25991;DHT22;13779;-33.886;151.198;2023-06-10T10:09:10;13.90;99.90
25991;DHT22;13779;-33.886;151.198;2023-06-10T10:11:41;13.80;99.90
25991;DHT22;13779;-33.886;151.198;2023-06-10T10:14:15;13.90;99.90
25991;DHT22;13779;-33.886;151.198;2023-06-10T10:16:50;13.80;99.90
25991;DHT22;13779;-33.886;151.198;2023-06-10T10:19:28;13.70;99.90
25991;DHT22;13779;-33.886;151.198;2023-06-10T10:22:06;13.70;99.90
25991;DHT22;13779;-33.886;151.198;2023-06-10T10:24:59;13.70;99.90
25991;DHT22;13779;-33.886;151.198;2023-06-10T10:30:11;13.70;99.90
25991;DHT22;13779;-33.886;151.198;2023-06-10T10:33:17;13.60;99.90
25991;DHT22;13779;-33.886;151.198;2023-06-10T10:35:49;13.60;99.90
25991;DHT22;13779;-33.886;151.198;2023-06-10T10:38:19;13.70;99.90
25991;DHT22;13779;-33.886;151.198;2023-06-10T10:40:50;13.70;99.90
25991;DHT22;13779;-33.886;151.198;2023-06-10T10:43:26;13.70;99.90
25991;DHT22;13779;-33.886;151.198;2023-06-10T10:46:02;13.60;99.90
25991;DHT22;13779;-33.886;151.198;2023-06-10T10:48:38;13.60;99.90
25991;DHT22;13779;-33.886;151.198;2023-06-10T10:51:11;13.50;99.90
25991;DHT22;13779;-33.886;151.198;2023-06-10T10:53:41;13.50;99.90
25991;DHT22;13779;-33.886;151.198;2023-06-10T10:56:15;13.50;99.90
25991;DHT22;13779;-33.886;151.198;2023-06-10T10:59:05;13.40;99.90
25991;DHT22;13779;-33.886;151.198;2023-06-10T11:01:43;13.40;99.90
25991;DHT22;13779;-33.886;151.198;2023-06-10T11:04:18;13.40;99.90
25991;DHT22;13779;-33.886;151.198;2023-06-10T11:06:55;13.40;99.90
25991;DHT22;13779;-33.886;151.198;2023-06-10T11:09:36;13.40;99.90
25991;DHT22;13779;-33.886;151.198;2023-06-10T11:12:07;13.40;99.90
25991;DHT22;13779;-33.886;151.198;2023-06-10T11:14:54;13.40;99.90
25991;DHT22;13779;-33.886;151.198;2023-06-10T11:17:26;13.20;99.90
25991;DHT22;13779;-33.886;151.198;2023-06-10T11:19:59;13.20;99.90
25991;DHT22;13779;-33.886;151.198;2023-06-10T11:22:30;13.20;99.90
25991;DHT22;13779;-33.886;151.198;2023-06-10T11:25:00;13.10;99.90
25991;DHT22;13779;-33.886;151.198;2023-06-10T11:27:38;13.20;99.90
25991;DHT22;13779;-33.886;151.198;2023-06-10T11:30:21;13.10;99.90
25991;DHT22;13779;-33.886;151.198;2023-06-10T11:32:55;13.10;99.90
25991;DHT22;13779;-33.886;151.198;2023-06-10T11:35:28;13.10;99.90
25991;DHT22;13779;-33.886;151.198;2023-06-10T11:38:00;13.20;99.90
25991;DHT22;13779;-33.886;151.198;2023-06-10T11:40:31;13.10;99.90
25991;DHT22;13779;-33.886;151.198;2023-06-10T11:43:03;13.20;99.90
25991;DHT22;13779;-33.886;151.198;2023-06-10T11:45:35;13.20;99.90
25991;DHT22;13779;-33.886;151.198;2023-06-10T11:48:05;13.20;99.90
25991;DHT22;13779;-33.886;151.198;2023-06-10T11:50:37;13.20;99.90
25991;DHT22;13779;-33.886;151.198;2023-06-10T11:53:09;13.20;99.90
25991;DHT22;13779;-33.886;151.198;2023-06-10T11:55:47;13.20;99.90
25991;DHT22;13779;-33.886;151.198;2023-06-10T11:58:21;13.20;99.90
25991;DHT22;13779;-33.886;151.198;2023-06-10T12:00:56;13.20;99.90
25991;DHT22;13779;-33.886;151.198;2023-06-10T12:03:35;13.20;99.90
25991;DHT22;13779;-33.886;151.198;2023-06-10T12:06:07;13.20;99.90
25991;DHT22;13779;-33.886;151.198;2023-06-10T12:08:42;13.30;99.90
25991;DHT22;13779;-33.886;151.198;2023-06-10T12:11:13;13.30;99.90
25991;DHT22;13779;-33.886;151.198;2023-06-10T12:13:48;13.20;99.90
25991;DHT22;13779;-33.886;151.198;2023-06-10T12:16:19;13.10;99.90
25991;DHT22;13779;-33.886;151.198;2023-06-10T12:18:50;13.10;99.90
25991;DHT22;13779;-33.886;151.198;2023-06-10T12:21:24;13.10;99.90
25991;DHT22;13779;-33.886;151.198;2023-06-10T12:24:06;13.10;99.90
25991;DHT22;13779;-33.886;151.198;2023-06-10T12:26:43;13.00;99.90
25991;DHT22;13779;-33.886;151.198;2023-06-10T12:29:25;13.00;99.90
25991;DHT22;13779;-33.886;151.198;2023-06-10T12:32:01;13.00;99.90
25991;DHT22;13779;-33.886;151.198;2023-06-10T12:34:35;13.00;99.90
25991;DHT22;13779;-33.886;151.198;2023-06-10T12:37:11;13.00;99.90
25991;DHT22;13779;-33.886;151.198;2023-06-10T12:39:52;13.00;99.90
25991;DHT22;13779;-33.886;151.198;2023-06-10T12:42:24;13.00;99.90
25991;DHT22;13779;-33.886;151.198;2023-06-10T12:44:54;12.90;99.90
25991;DHT22;13779;-33.886;151.198;2023-06-10T12:47:33;12.90;99.90
25991;DHT22;13779;-33.886;151.198;2023-06-10T12:50:08;12.90;99.90
25991;DHT22;13779;-33.886;151.198;2023-06-10T12:52:39;12.90;99.90
25991;DHT22;13779;-33.886;151.198;2023-06-10T12:55:10;12.90;99.90
25991;DHT22;13779;-33.886;151.198;2023-06-10T12:57:51;12.80;99.90
25991;DHT22;13779;-33.886;151.198;2023-06-10T13:00:22;12.70;99.90
25991;DHT22;13779;-33.886;151.198;2023-06-10T13:02:55;12.70;99.90
25991;DHT22;13779;-33.886;151.198;2023-06-10T13:05:30;12.70;99.90
25991;DHT22;13779;-33.886;151.198;2023-06-10T13:08:00;12.70;99.90
25991;DHT22;13779;-33.886;151.198;2023-06-10T13:10:31;12.70;99.90
25991;DHT22;13779;-33.886;151.198;2023-06-10T13:13:02;12.70;99.90
25991;DHT22;13779;-33.886;151.198;2023-06-10T13:15:35;12.60;99.90
25991;DHT22;13779;-33.886;151.198;2023-06-10T13:18:10;12.70;99.90
25991;DHT22;13779;-33.886;151.198;2023-06-10T13:20:41;12.60;99.90
25991;DHT22;13779;-33.886;151.198;2023-06-10T13:23:12;12.70;99.90
25991;DHT22;13779;-33.886;151.198;2023-06-10T13:25:46;12.70;99.90
25991;DHT22;13779;-33.886;151.198;2023-06-10T13:28:17;12.60;99.90
25991;DHT22;13779;-33.886;151.198;2023-06-10T13:30:48;12.60;99.90
25991;DHT22;13779;-33.886;151.198;2023-06-10T13:33:18;12.60;99.90
25991;DHT22;13779;-33.886;151.198;2023-06-10T13:35:49;12.60;99.90
25991;DHT22;13779;-33.886;151.198;2023-06-10T13:38:19;12.50;99.90
25991;DHT22;13779;-33.886;151.198;2023-06-10T13:40:50;12.50;99.90
25991;DHT22;13779;-33.886;151.198;2023-06-10T13:43:21;12.50;99.90
25991;DHT22;13779;-33.886;151.198;2023-06-10T13:45:51;12.40;99.90
25991;DHT22;13779;-33.886;151.198;2023-06-10T13:48:22;12.40;99.90
25991;DHT22;13779;-33.886;151.198;2023-06-10T13:50:53;12.40;99.90
25991;DHT22;13779;-33.886;151.198;2023-06-10T13:53:24;12.30;99.90
25991;DHT22;13779;-33.886;151.198;2023-06-10T13:55:54;12.30;99.90
25991;DHT22;13779;-33.886;151.198;2023-06-10T13:58:25;12.40;99.90
25991;DHT22;13779;-33.886;151.198;2023-06-10T14:00:55;12.40;99.90
25991;DHT22;13779;-33.886;151.198;2023-06-10T14:03:26;12.30;99.90
25991;DHT22;13779;-33.886;151.198;2023-06-10T14:05:57;12.30;99.90
25991;DHT22;13779;-33.886;151.198;2023-06-10T14:08:32;12.20;99.90
25991;DHT22;13779;-33.886;151.198;2023-06-10T14:11:03;12.20;99.90
25991;DHT22;13779;-33.886;151.198;2023-06-10T14:13:36;12.10;99.90
25991;DHT22;13779;-33.886;151.198;2023-06-10T14:16:11;12.20;99.90
25991;DHT22;13779;-33.886;151.198;2023-06-10T14:18:42;12.30;99.90
25991;DHT22;13779;-33.886;151.198;2023-06-10T14:21:13;12.30;99.90
25991;DHT22;13779;-33.886;151.198;2023-06-10T14:23:44;12.20;99.90
25991;DHT22;13779;-33.886;151.198;2023-06-10T14:26:15;12.20;99.90
25991;DHT22;13779;-33.886;151.198;2023-06-10T14:28:46;12.00;99.90
25991;DHT22;13779;-33.886;151.198;2023-06-10T14:31:20;12.10;99.90
25991;DHT22;13779;-33.886;151.198;2023-06-10T14:33:51;12.10;99.90
25991;DHT22;13779;-33.886;151.198;2023-06-10T14:36:21;12.10;99.90
25991;DHT22;13779;-33.886;151.198;2023-06-10T14:38:52;12.00;99.90
25991;DHT22;13779;-33.886;151.198;2023-06-10T14:41:23;12.00;99.90
25991;DHT22;13779;-33.886;151.198;2023-06-10T14:43:54;12.00;99.90
25991;DHT22;13779;-33.886;151.198;2023-06-10T14:46:25;12.00;99.90
25991;DHT22;13779;-33.886;151.198;2023-06-10T14:48:55;12.00;99.90
25991;DHT22;13779;-33.886;151.198;2023-06-10T14:51:25;12.10;99.90
25991;DHT22;13779;-33.886;151.198;2023-06-10T14:53:55;12.00;99.90
25991;DHT22;13779;-33.886;151.198;2023-06-10T14:56:27;11.90;99.90
25991;DHT22;13779;-33.886;151.198;2023-06-10T14:58:57;11.90;99.90
25991;DHT22;13779;-33.886;151.198;2023-06-10T15:01:28;11.90;99.90
25991;DHT22;13779;-33.886;151.198;2023-06-10T15:03:58;12.00;99.90
25991;DHT22;13779;-33.886;151.198;2023-06-10T15:06:28;12.00;99.90
25991;DHT22;13779;-33.886;151.198;2023-06-10T15:08:58;12.00;99.90
25991;DHT22;13779;-33.886;151.198;2023-06-10T15:11:28;11.90;99.90
25991;DHT22;13779;-33.886;151.198;2023-06-10T15:13:59;11.90;99.90
25991;DHT22;13779;-33.886;151.198;2023-06-10T15:16:29;11.80;99.90
25991;DHT22;13779;-33.886;151.198;2023-06-10T15:18:59;11.80;99.90
25991;DHT22;13779;-33.886;151.198;2023-06-10T15:21:30;11.80;99.90
25991;DHT22;13779;-33.886;151.198;2023-06-10T15:24:00;11.80;99.90
25991;DHT22;13779;-33.886;151.198;2023-06-10T15:26:30;11.80;99.90